Uricky, Kazakhstan
Current Conditions -  °F | °C
As of 1:30 AM on Friday 19 Dec 2014 (Local Time) from UAUU Reporting Station
Clear Clear  
Wind Chill: -6°   Ceiling: Unl
Heat Index:   Visibility: 6mi
Dew Point:   Wind: 4mph
Humidity: 85%   Direction: 180°S
Pressure: 30.36"   Gusts: NA
Location:  53.32°N, 65.55°E
Report Text: UAUU 181930Z 18002MPS CAVOK M16/M18 Q1028 R33/320160 TEMPOBKN004 RMK QFE755/1007
Loading
Personal Weather Stations






























Interactive Weather Map New forecast layout! Learn more

10-Day Weather Forecast

Advertisements
Track Severe Weather on mobile